Time;durP1;ratioP1;P1;durP2;ratioP2;P2;SDS_P1;SDS_P2;PMS_P1;PMS_P2;Temp;Humidity;BMP_temperature;BMP_pressure;BME280_temperature;BME280_humidity;BME280_pressure;Samples;Min_cycle;Max_cycle;Signal;HPM_P1;HPM_P2
2021/06/23 19:59:31;;;;;;;18.10;8.77;;;17.70;99.90;;;19.03;69.79;100983.31;6155588;23;20072;-86
2021/06/23 20:01:58;;;;;;;13.38;7.78;;;17.60;99.90;;;18.90;70.04;100985.78;6151995;23;20018;-89
2021/06/23 20:04:24;;;;;;;18.00;9.20;;;17.50;99.90;;;18.84;71.04;100984.56;6132299;23;20009;-88
2021/06/23 20:14:51;;;;;;;13.25;7.90;;;17.30;99.90;;;18.55;71.97;100985.81;6159639;23;20064;-90
2021/06/23 20:17:37;;;;;;;14.75;8.85;;;17.20;99.90;;;18.50;72.30;100997.50;6135031;23;20039;-90
2021/06/23 20:20:09;;;;;;;12.30;8.25;;;17.10;99.90;;;18.46;72.85;100991.84;6135472;23;20060;-90
2021/06/23 20:22:36;;;;;;;15.00;10.68;;;17.00;99.90;;;18.50;72.49;100989.00;6134563;23;20009;-89
2021/06/23 20:25:07;;;;;;;14.90;9.75;;;17.10;99.90;;;18.58;72.75;100982.16;6160554;23;20035;-88
2021/06/23 20:27:34;;;;;;;13.82;9.68;;;17.10;99.90;;;18.69;71.98;100982.94;6137283;23;20058;-89
2021/06/23 20:30:00;;;;;;;16.83;9.88;;;17.20;99.90;;;18.76;72.00;100982.94;6136204;23;20462;-88
2021/06/23 20:32:26;;;;;;;14.32;8.93;;;17.20;99.90;;;18.83;71.53;100985.78;6133052;23;20019;-91
2021/06/23 20:34:54;;;;;;;14.05;9.35;;;17.30;99.90;;;18.88;71.31;100986.16;6131443;23;20005;-92
2021/06/23 20:37:23;;;;;;;14.93;9.43;;;17.40;99.90;;;18.95;71.18;100985.34;6158679;23;20005;-90
2021/06/23 20:39:49;;;;;;;18.05;9.18;;;17.40;99.90;;;19.01;70.78;100982.94;6131893;23;20085;-90
2021/06/23 20:42:17;;;;;;;16.13;9.88;;;17.50;99.90;;;19.05;70.41;100978.84;6132092;23;20040;-89
2021/06/23 20:44:43;;;;;;;15.40;8.70;;;17.50;99.90;;;19.10;70.10;100975.63;6134346;23;20451;-86
2021/06/23 20:47:09;;;;;;;11.63;7.93;;;17.70;99.90;;;19.15;70.09;100975.19;6133767;23;20073;-87
2021/06/23 20:49:37;;;;;;;14.80;9.02;;;17.60;99.90;;;19.17;69.68;100969.91;6158072;23;20434;-88
2021/06/23 20:52:06;;;;;;;12.90;8.15;;;17.70;99.90;;;19.16;70.17;100979.66;6132751;23;20073;-86
2021/06/23 20:54:38;;;;;;;14.27;8.02;;;17.60;99.90;;;19.16;69.49;100985.31;6136032;23;20065;-89
2021/06/23 20:57:12;;;;;;;11.57;7.15;;;17.60;99.90;;;19.14;69.91;100984.91;6134990;23;20010;-87
2021/06/23 20:59:40;;;;;;;11.13;7.53;;;17.60;99.90;;;19.13;70.30;100985.31;6182030;23;20010;-86
2021/06/23 21:02:07;;;;;;;11.15;8.40;;;17.60;99.90;;;19.11;70.73;100984.91;6158266;23;20014;-89
2021/06/23 21:04:52;;;;;;;13.25;7.50;;;17.60;99.90;;;19.09;71.34;100982.50;6157953;23;20014;-87
2021/06/23 21:07:35;;;;;;;14.63;8.82;;;17.60;99.90;;;19.05;70.91;100978.84;6164071;23;20009;-88
2021/06/23 21:10:12;;;;;;;12.32;8.00;;;17.60;99.90;;;19.04;71.11;100973.63;6140967;23;20357;-89
2021/06/23 21:13:00;;;;;;;10.30;7.25;;;17.60;99.90;;;19.07;71.21;100984.91;6187587;23;20483;-85
2021/06/23 21:15:49;;;;;;;9.85;7.20;;;17.60;99.90;;;19.05;70.91;100972.38;6162476;23;20005;-89
2021/06/23 21:18:26;;;;;;;10.20;6.60;;;17.50;99.90;;;19.01;70.78;100969.56;6165221;23;20101;-89
2021/06/23 21:21:27;;;;;;;12.30;6.18;;;17.50;99.90;;;18.99;70.55;100959.88;6189218;23;20005;-89
2021/06/23 21:23:59;;;;;;;10.85;6.05;;;17.50;99.90;;;18.99;70.93;100974.84;6188929;23;20013;-91
2021/06/23 21:26:31;;;;;;;8.10;5.35;;;17.50;99.90;;;18.94;70.93;100980.91;6164498;23;20006;-88
2021/06/23 21:42:12;;;;;;;6.43;4.30;;;17.40;99.90;;;18.83;70.45;100977.28;6158431;23;20057;-90
2021/06/23 21:44:38;;;;;;;9.15;5.18;;;17.40;99.90;;;18.79;70.85;100997.09;6144630;23;20010;-89
2021/06/23 21:47:06;;;;;;;6.55;5.05;;;17.40;99.90;;;18.81;70.54;100999.53;6183247;23;20036;-91
2021/06/23 21:49:36;;;;;;;6.28;5.03;;;17.40;99.90;;;18.83;70.92;100995.06;6159193;23;20005;-90
2021/06/23 21:52:14;;;;;;;9.63;5.32;;;17.30;99.90;;;18.79;70.99;101005.59;6182849;23;20088;-88
2021/06/23 21:54:47;;;;;;;8.60;5.43;;;17.30;99.90;;;18.77;71.44;101007.22;6183078;23;20002;-88
2021/06/23 21:57:33;;;;;;;9.70;4.75;;;17.30;99.90;;;18.73;71.95;101007.22;6182855;23;20009;-88
2021/06/23 22:00:08;;;;;;;6.32;4.78;;;17.20;99.90;;;18.72;72.12;101013.28;6183897;23;20021;-86
2021/06/23 22:02:46;;;;;;;9.32;5.35;;;17.20;99.90;;;18.70;72.30;101022.16;6165005;23;20010;-91
2021/06/23 22:05:14;;;;;;;8.13;6.00;;;17.20;99.90;;;18.64;72.57;101048.44;6183376;23;20124;-91
2021/06/23 22:07:46;;;;;;;10.50;5.90;;;17.20;99.90;;;18.64;72.64;101054.91;6182174;23;20191;-91
2021/06/23 22:10:23;;;;;;;9.63;5.85;;;17.10;99.90;;;18.58;72.78;101056.53;6182759;23;20016;-89
2021/06/23 22:12:56;;;;;;;10.40;5.00;;;17.10;99.90;;;18.58;73.17;101050.06;6182788;23;20006;-89
2021/06/23 22:15:29;;;;;;;8.23;4.95;;;17.10;99.90;;;18.56;73.35;101053.28;6158487;23;20037;-89
2021/06/23 22:17:57;;;;;;;8.55;5.80;;;17.00;99.90;;;18.50;73.39;101054.06;6183502;23;20009;-89
2021/06/23 22:20:32;;;;;;;6.85;5.55;;;17.10;99.90;;;18.47;72.46;101064.16;6182600;23;20005;-90
2021/06/23 22:23:01;;;;;;;10.53;5.77;;;17.00;99.90;;;18.47;72.71;101061.31;6158160;23;20014;-88
2021/06/23 22:25:32;;;;;;;6.93;5.00;;;17.00;99.90;;;18.46;72.69;101054.06;6158818;23;20011;-90
2021/06/23 22:28:02;;;;;;;10.75;5.35;;;17.00;99.90;;;18.44;73.04;101062.13;6157899;23;20016;-89
2021/06/23 22:30:33;;;;;;;6.57;5.05;;;16.90;99.90;;;18.40;73.25;101064.94;6181833;23;20037;-91
2021/06/23 22:33:04;;;;;;;9.10;5.15;;;16.90;99.90;;;18.35;73.40;101067.34;6184262;23;20009;-91
2021/06/23 22:35:32;;;;;;;7.60;5.78;;;16.90;99.90;;;18.29;73.28;101057.66;6158795;23;20010;-92
2021/06/23 22:38:02;;;;;;;7.70;5.30;;;16.80;99.90;;;18.26;73.92;101045.13;6161223;23;20001;-89
2021/06/23 22:40:47;;;;;;;8.43;6.30;;;16.80;99.90;;;18.20;74.21;101041.09;6184339;23;20013;-90
2021/06/23 22:43:20;;;;;;;6.95;5.70;;;16.70;99.90;;;18.13;74.68;101023.28;6183884;23;20070;-88
2021/06/23 22:46:02;;;;;;;7.25;5.53;;;16.70;99.90;;;18.05;74.93;101030.94;6183771;23;20448;-88
2021/06/23 22:48:47;;;;;;;8.35;5.25;;;16.60;99.90;;;17.96;75.40;101024.84;6183834;23;20037;-88
2021/06/23 22:51:38;;;;;;;7.85;6.13;;;16.50;99.90;;;17.82;75.57;101022.78;6184103;23;20009;-90
2021/06/23 22:57:00;;;;;;;8.07;5.60;;;16.30;99.90;;;17.63;76.84;101030.78;6160798;23;20013;-89
2021/06/23 22:59:27;;;;;;;8.82;5.90;;;16.20;99.90;;;17.53;77.15;101032.31;6163233;23;20008;-90
2021/06/23 23:01:55;;;;;;;7.13;5.75;;;16.20;99.90;;;17.50;77.39;101023.84;6135615;23;20096;-91
2021/06/23 23:04:25;;;;;;;11.75;7.03;;;16.10;99.90;;;17.44;77.69;101033.88;6157635;23;20014;-90
2021/06/23 23:07:03;;;;;;;10.35;6.70;;;16.10;99.90;;;17.36;78.02;101033.88;6157285;23;20001;-89
2021/06/23 23:09:33;;;;;;;11.43;7.68;;;16.00;99.90;;;17.27;78.29;101039.03;6133005;23;20185;-91
2021/06/23 23:12:02;;;;;;;9.88;7.40;;;15.90;99.90;;;17.27;78.35;101027.75;6132117;23;20009;-90
2021/06/23 23:14:30;;;;;;;11.48;6.95;;;15.90;99.90;;;17.24;78.65;101022.88;6156974;23;20092;-91
2021/06/23 23:17:00;;;;;;;10.48;6.57;;;15.80;99.90;;;17.17;78.75;101020.03;6133684;23;20006;-89
2021/06/23 23:19:28;;;;;;;12.25;6.75;;;15.80;99.90;;;17.13;79.10;101032.50;6133681;23;20514;-90
2021/06/23 23:21:57;;;;;;;11.38;7.18;;;15.70;99.90;;;17.12;79.30;101034.50;6133129;23;20014;-91
2021/06/23 23:24:26;;;;;;;10.65;6.68;;;15.70;99.90;;;17.12;79.40;101028.06;6133291;23;20017;-88
2021/06/23 23:26:52;;;;;;;12.57;8.30;;;15.70;99.90;;;17.11;79.63;101023.63;6133284;23;20055;-92
2021/06/23 23:29:18;;;;;;;11.05;6.95;;;15.80;99.90;;;17.13;79.15;101024.84;6133871;23;20009;-90
2021/06/23 23:31:44;;;;;;;12.25;7.00;;;15.70;99.90;;;17.13;79.24;101029.69;6157035;23;20028;-90
2021/06/23 23:34:10;;;;;;;14.07;8.00;;;15.70;99.90;;;17.12;79.71;101034.50;6132214;23;20091;-89
2021/06/23 23:36:40;;;;;;;12.68;7.97;;;15.80;99.90;;;17.14;79.70;101039.78;6132743;23;20017;-90
2021/06/23 23:39:07;;;;;;;12.93;7.65;;;15.70;99.90;;;17.14;79.55;101043.41;6132448;23;20013;-89
2021/06/23 23:41:33;;;;;;;10.65;7.80;;;15.80;99.90;;;17.15;79.65;101044.19;6132472;23;20010;-91
2021/06/23 23:43:59;;;;;;;11.80;8.45;;;15.70;99.90;;;17.16;79.77;101045.81;6132970;23;20010;-90
2021/06/23 23:46:26;;;;;;;10.85;7.90;;;15.70;99.90;;;17.19;79.63;101057.16;6132540;23;20009;-91
2021/06/23 23:48:52;;;;;;;12.15;8.57;;;15.80;99.90;;;17.23;79.44;101060.00;6132372;23;20045;-88
2021/06/23 23:51:18;;;;;;;14.90;8.27;;;15.80;99.90;;;17.21;79.64;101057.56;6132444;23;20055;-89
2021/06/23 23:53:44;;;;;;;11.95;8.43;;;15.80;99.90;;;17.23;79.30;101068.47;6133135;23;20092;-88
2021/06/23 23:56:10;;;;;;;11.48;8.50;;;15.80;99.90;;;17.22;79.50;101061.19;6132757;23;20008;-92
2021/06/23 23:58:36;;;;;;;11.75;8.32;;;15.80;99.90;;;17.25;79.38;101066.84;6152524;23;20222;-88
